Terminal Aerodrome Forecast
Issued by NWS Medford, OR

Home | Current Version | Previous Version | Text Only | Print | Product List | Glossary On
Versions: 1 2 3 4 5 6 7 8 9 10 11 12 13 14 15 16 17 18 19 20 21 22
000
FTUS46 KMFR 261720
TAFMFR
TAF
KMFR 261720Z 2618/2718 VRB03KT P6SM SCT005 BKN040
     FM261900 VRB03KT P6SM -SHRASN SCT020 OVC040
     FM270400 VRB03KT 5SM -SHSN OVC020
     FM271100 30002KT P6SM OVC035=

USA.gov is the U.S. government's official web portal to all federal, state and local government web resources and services.